createdAt,value
2023-05-13T00:00:28.268Z,6.80
2023-05-13T00:03:11.106Z,10.93
2023-05-13T00:05:38.377Z,5.57
2023-05-13T00:08:06.081Z,6.88
2023-05-13T00:10:33.729Z,5.35
2023-05-13T00:13:01.300Z,6.97
2023-05-13T00:15:28.746Z,8.18
2023-05-13T00:17:56.199Z,6.82
2023-05-13T00:20:23.690Z,6.47
2023-05-13T00:22:51.422Z,10.05
2023-05-13T00:25:18.691Z,6.60
2023-05-13T00:27:46.156Z,8.68
2023-05-13T00:30:13.410Z,11.45
2023-05-13T00:32:40.899Z,6.35
2023-05-13T00:35:26.810Z,8.45
2023-05-13T00:38:01.141Z,7.75
2023-05-13T00:40:28.366Z,10.38
2023-05-13T00:42:55.927Z,7.30
2023-05-13T00:45:23.205Z,5.43
2023-05-13T00:47:51.355Z,6.32
2023-05-13T00:50:18.899Z,5.40
2023-05-13T00:52:47.723Z,6.68
2023-05-13T00:55:14.951Z,7.45
2023-05-13T00:57:42.616Z,8.98
2023-05-13T01:00:10.108Z,7.72
2023-05-13T01:02:56.504Z,7.38
2023-05-13T01:05:35.743Z,7.00
2023-05-13T01:08:09.602Z,9.60
2023-05-13T01:10:36.831Z,7.47
2023-05-13T01:13:07.805Z,6.20
2023-05-13T01:15:36.979Z,9.10
2023-05-13T01:18:10.270Z,15.52
2023-05-13T01:20:38.296Z,7.70
2023-05-13T01:23:05.796Z,5.63
2023-05-13T01:25:33.031Z,7.13
2023-05-13T01:28:00.885Z,7.65
2023-05-13T01:30:28.142Z,7.82
2023-05-13T01:32:55.735Z,11.57
2023-05-13T01:35:23.387Z,10.38
2023-05-13T01:37:51.117Z,9.93
2023-05-13T01:40:31.793Z,7.00
2023-05-13T01:42:59.861Z,9.50
2023-05-13T01:45:30.080Z,12.10
2023-05-13T01:47:57.611Z,8.15
2023-05-13T01:50:25.227Z,9.00
2023-05-13T01:52:52.723Z,8.05
2023-05-13T01:55:19.946Z,7.45
2023-05-13T01:58:03.519Z,7.88
2023-05-13T02:00:36.627Z,6.90
2023-05-13T02:03:04.329Z,7.60
2023-05-13T02:05:31.666Z,6.05
2023-05-13T02:08:00.523Z,7.65
2023-05-13T02:10:27.748Z,6.47
2023-05-13T02:12:55.242Z,10.38
2023-05-13T02:15:22.520Z,7.18
2023-05-13T02:18:04.834Z,8.65
2023-05-13T02:20:33.732Z,11.00
2023-05-13T02:23:01.205Z,8.63
2023-05-13T02:25:28.459Z,8.52
2023-05-13T02:27:55.983Z,7.55
2023-05-13T02:30:23.351Z,10.32
2023-05-13T02:32:50.999Z,8.15
2023-05-13T02:35:18.221Z,9.25
2023-05-13T02:37:46.412Z,6.53
2023-05-13T02:40:13.698Z,9.75
2023-05-13T02:42:41.192Z,13.65
2023-05-13T02:45:09.192Z,6.45
2023-05-13T02:47:36.705Z,7.82
2023-05-13T02:50:04.107Z,13.40
2023-05-13T02:52:31.631Z,11.23
2023-05-13T02:54:58.912Z,9.18
2023-05-13T02:57:26.429Z,6.93
2023-05-13T02:59:53.618Z,8.18
2023-05-13T03:02:27.187Z,10.27
2023-05-13T03:04:56.588Z,7.38
2023-05-13T03:07:56.414Z,9.18
2023-05-13T03:10:23.702Z,9.13
2023-05-13T03:12:51.291Z,9.90
2023-05-13T03:15:18.490Z,8.65
2023-05-13T03:17:46.040Z,6.28
2023-05-13T03:20:13.320Z,9.05
2023-05-13T03:22:40.836Z,10.27
2023-05-13T03:25:08.152Z,7.35
2023-05-13T03:27:35.637Z,10.60
2023-05-13T03:30:02.926Z,8.93
2023-05-13T03:32:30.559Z,5.53
2023-05-13T03:34:58.048Z,7.57
2023-05-13T03:37:25.575Z,7.82
2023-05-13T03:39:52.742Z,8.20
2023-05-13T03:42:20.322Z,15.02
2023-05-13T03:44:47.529Z,6.95
2023-05-13T03:47:15.014Z,9.10
2023-05-13T03:49:42.186Z,8.05
2023-05-13T03:52:09.641Z,6.47
2023-05-13T03:54:36.846Z,8.75
2023-05-13T03:57:04.434Z,6.97
2023-05-13T03:59:31.647Z,6.38
2023-05-13T04:01:59.167Z,6.85
2023-05-13T04:04:26.391Z,8.10
2023-05-13T04:06:53.960Z,6.57
2023-05-13T04:09:21.175Z,7.72
2023-05-13T04:11:48.776Z,8.80
2023-05-13T04:14:15.976Z,6.18
2023-05-13T04:16:43.566Z,8.13
2023-05-13T04:19:10.841Z,10.30
2023-05-13T04:21:38.325Z,11.70
2023-05-13T04:24:05.655Z,7.13
2023-05-13T04:26:34.350Z,5.10
2023-05-13T04:29:01.575Z,5.97
2023-05-13T04:31:29.142Z,6.20
2023-05-13T04:33:56.852Z,8.60
2023-05-13T04:36:24.354Z,6.20
2023-05-13T04:38:51.606Z,11.20
2023-05-13T04:41:19.095Z,7.28
2023-05-13T04:43:46.762Z,6.22
2023-05-13T04:46:14.672Z,6.25
2023-05-13T04:48:41.973Z,8.73
2023-05-13T04:51:09.969Z,6.18
2023-05-13T04:53:38.064Z,5.75
2023-05-13T04:56:05.901Z,5.97
2023-05-13T04:58:33.098Z,11.88
2023-05-13T05:01:00.548Z,6.43
2023-05-13T05:03:27.765Z,6.63
2023-05-13T05:05:55.311Z,5.88
2023-05-13T05:08:22.533Z,6.43
2023-05-13T05:10:50.088Z,7.88
2023-05-13T05:13:17.349Z,8.48
2023-05-13T05:15:44.827Z,6.35
2023-05-13T05:18:12.208Z,8.05
2023-05-13T05:20:39.766Z,7.53
2023-05-13T05:23:07.062Z,9.77
2023-05-13T05:25:34.559Z,7.47
2023-05-13T05:28:01.879Z,10.07
2023-05-13T05:30:41.126Z,5.90
2023-05-13T05:33:08.600Z,8.38
2023-05-13T05:35:36.177Z,10.18
2023-05-13T05:38:03.881Z,6.07
2023-05-13T05:40:47.606Z,6.22
2023-05-13T05:43:18.076Z,11.68
2023-05-13T05:45:46.085Z,6.30
2023-05-13T05:48:13.403Z,6.50
2023-05-13T05:50:41.310Z,6.93
2023-05-13T05:53:08.481Z,6.50
2023-05-13T05:55:35.990Z,13.40
2023-05-13T05:58:03.860Z,8.52
2023-05-13T06:00:31.412Z,8.90
2023-05-13T06:02:58.872Z,7.75
2023-05-13T06:05:26.591Z,7.47
2023-05-13T06:07:53.960Z,7.78
2023-05-13T06:10:21.580Z,6.40
2023-05-13T06:12:49.011Z,8.20
2023-05-13T06:15:16.565Z,7.43
2023-05-13T06:17:43.780Z,7.97
2023-05-13T06:20:11.708Z,8.38
2023-05-13T06:22:39.766Z,6.40
2023-05-13T06:25:07.404Z,7.35
2023-05-13T06:27:34.590Z,5.90
2023-05-13T06:30:02.079Z,7.75
2023-05-13T06:32:29.305Z,8.75
2023-05-13T06:34:56.880Z,9.50
2023-05-13T06:37:24.111Z,11.20
2023-05-13T06:39:51.646Z,8.35
2023-05-13T06:42:18.855Z,8.88
2023-05-13T06:44:46.481Z,8.27
2023-05-13T06:47:13.852Z,5.63
2023-05-13T06:49:41.534Z,8.77
2023-05-13T06:52:09.231Z,7.13
2023-05-13T06:54:36.705Z,13.52
2023-05-13T06:57:04.055Z,7.38
2023-05-13T06:59:31.581Z,7.97
2023-05-13T07:01:58.776Z,7.30
2023-05-13T07:04:26.252Z,6.75
2023-05-13T07:06:53.486Z,10.40
2023-05-13T07:09:20.962Z,7.78
2023-05-13T07:11:48.201Z,7.15
2023-05-13T07:14:15.722Z,6.82
2023-05-13T07:16:50.847Z,9.27
2023-05-13T07:19:18.598Z,14.40
2023-05-13T07:21:45.912Z,7.13
2023-05-13T07:24:16.411Z,6.15
2023-05-13T07:26:46.490Z,11.75
2023-05-13T07:29:14.108Z,8.65
2023-05-13T07:31:41.312Z,8.93
2023-05-13T07:34:08.803Z,8.27
2023-05-13T07:36:36.323Z,6.78
2023-05-13T07:39:07.115Z,5.60
2023-05-13T07:41:36.657Z,6.25
2023-05-13T07:44:04.288Z,6.00
2023-05-13T07:46:33.679Z,8.80
2023-05-13T07:49:01.165Z,9.13
2023-05-13T07:51:29.326Z,7.18
2023-05-13T07:53:57.312Z,9.88
2023-05-13T07:56:24.553Z,6.47
2023-05-13T07:58:54.122Z,5.38
2023-05-13T08:01:21.436Z,10.50
2023-05-13T08:03:51.867Z,5.80
2023-05-13T08:06:19.280Z,7.63
2023-05-13T08:08:46.959Z,6.80
2023-05-13T08:11:14.199Z,6.63
2023-05-13T08:13:41.913Z,7.63
2023-05-13T08:16:09.344Z,8.55
2023-05-13T08:18:36.869Z,6.45
2023-05-13T08:21:04.098Z,6.78
2023-05-13T08:23:44.166Z,8.68
2023-05-13T08:26:13.347Z,7.45
2023-05-13T08:28:41.942Z,6.95
2023-05-13T08:31:11.564Z,7.00
2023-05-13T08:33:39.176Z,9.45
2023-05-13T08:36:06.884Z,9.38
2023-05-13T08:38:34.504Z,7.80
2023-05-13T08:41:04.573Z,6.63
2023-05-13T08:43:35.541Z,8.05
2023-05-13T08:46:03.744Z,5.38
2023-05-13T08:48:31.854Z,5.72
2023-05-13T08:50:59.171Z,5.38
2023-05-13T08:53:27.054Z,6.38
2023-05-13T08:55:54.480Z,5.45
2023-05-13T08:58:21.999Z,6.95
2023-05-13T09:00:49.797Z,7.00
2023-05-13T09:03:17.799Z,9.43
2023-05-13T09:05:45.521Z,6.47
2023-05-13T09:08:13.385Z,4.90
2023-05-13T09:10:41.409Z,7.93
2023-05-13T09:13:08.958Z,5.82
2023-05-13T09:15:36.472Z,6.10
2023-05-13T09:18:05.303Z,5.20
2023-05-13T09:20:33.113Z,10.63
2023-05-13T09:23:02.948Z,4.95
2023-05-13T09:25:30.788Z,5.45
2023-05-13T09:28:00.165Z,5.28
2023-05-13T09:33:13.762Z,11.75
2023-05-13T09:35:42.354Z,4.28
2023-05-13T09:38:18.078Z,5.15
2023-05-13T09:40:55.582Z,5.30
2023-05-13T09:43:25.173Z,5.80
2023-05-13T09:45:56.148Z,3.92
2023-05-13T09:48:25.316Z,6.63
2023-05-13T09:50:52.589Z,4.20
2023-05-13T09:53:20.141Z,5.28
2023-05-13T09:55:51.418Z,5.10
2023-05-13T09:58:19.405Z,5.82
2023-05-13T10:00:47.443Z,4.15
2023-05-13T10:03:16.283Z,8.02
2023-05-13T10:05:43.608Z,3.60
2023-05-13T10:08:12.257Z,4.07
2023-05-13T10:10:40.051Z,5.38
2023-05-13T10:13:12.031Z,3.10
2023-05-13T10:15:49.297Z,3.45
2023-05-13T10:18:17.524Z,5.40
2023-05-13T10:20:45.236Z,5.72
2023-05-13T10:23:13.138Z,7.25
2023-05-13T10:25:41.613Z,2.83
2023-05-13T10:28:09.914Z,4.65
2023-05-13T10:30:37.945Z,4.18
2023-05-13T10:33:05.524Z,3.35
2023-05-13T10:35:40.413Z,3.85
2023-05-13T10:38:12.847Z,5.13
2023-05-13T10:40:52.713Z,4.57
2023-05-13T10:43:24.029Z,6.47
2023-05-13T10:45:51.998Z,4.60
2023-05-13T10:48:19.739Z,4.50
2023-05-13T10:50:54.513Z,9.55
2023-05-13T10:53:27.899Z,2.90
2023-05-13T10:55:56.007Z,5.07
2023-05-13T10:58:33.600Z,6.18
2023-05-13T11:01:17.722Z,4.43
2023-05-13T11:04:11.501Z,5.90
2023-05-13T11:06:39.876Z,4.15
2023-05-13T11:09:08.317Z,3.72
2023-05-13T11:11:35.956Z,4.28
2023-05-13T11:14:08.565Z,3.75
2023-05-13T11:16:36.479Z,3.80
2023-05-13T11:19:04.534Z,6.45
2023-05-13T11:21:40.629Z,8.07
2023-05-13T11:24:08.238Z,4.53
2023-05-13T11:26:44.778Z,3.80
2023-05-13T11:29:12.638Z,5.95
2023-05-13T11:31:44.203Z,5.00
2023-05-13T11:36:39.737Z,3.90
2023-05-13T11:39:11.175Z,8.30
2023-05-13T11:41:41.413Z,4.70
2023-05-13T11:44:08.982Z,3.15
2023-05-13T11:46:36.346Z,3.85
2023-05-13T11:49:05.883Z,6.95
2023-05-13T11:51:34.496Z,4.05
2023-05-13T11:54:02.954Z,3.22
2023-05-13T11:56:42.708Z,5.90
2023-05-13T11:59:13.542Z,3.17
2023-05-13T12:01:58.130Z,6.28
2023-05-13T12:04:29.159Z,4.72
2023-05-13T12:06:56.882Z,11.27
2023-05-13T12:09:24.956Z,3.70
2023-05-13T12:11:52.491Z,4.55
2023-05-13T12:14:20.751Z,3.78
2023-05-13T12:16:48.064Z,4.90
2023-05-13T12:19:15.601Z,5.03
2023-05-13T12:21:42.921Z,3.50
2023-05-13T12:24:22.807Z,5.63
2023-05-13T12:26:50.138Z,2.78
2023-05-13T12:29:20.454Z,7.35
2023-05-13T12:32:05.970Z,4.40
2023-05-13T12:34:34.320Z,3.85
2023-05-13T12:37:11.684Z,4.35
2023-05-13T12:39:39.743Z,4.47
2023-05-13T12:42:13.480Z,5.10
2023-05-13T12:44:41.975Z,4.95
2023-05-13T12:47:09.211Z,2.70
2023-05-13T12:49:51.012Z,3.65
2023-05-13T12:52:18.223Z,5.68
2023-05-13T12:54:45.736Z,4.57
2023-05-13T12:57:13.088Z,4.93
2023-05-13T12:59:40.660Z,2.83
2023-05-13T13:02:07.932Z,3.45
2023-05-13T13:04:35.720Z,5.25
2023-05-13T13:07:03.087Z,3.38
2023-05-13T13:09:30.705Z,4.10
2023-05-13T13:11:57.911Z,4.32
2023-05-13T13:14:25.374Z,5.30
2023-05-13T13:16:52.683Z,3.00
2023-05-13T13:19:20.507Z,3.80
2023-05-13T13:21:47.776Z,4.22
2023-05-13T13:24:15.426Z,5.78
2023-05-13T13:26:42.634Z,5.80
2023-05-13T13:29:11.982Z,5.22
2023-05-13T13:31:39.172Z,5.70
2023-05-13T13:34:06.729Z,4.82
2023-05-13T13:36:34.156Z,3.85
2023-05-13T13:39:01.813Z,5.53
2023-05-13T13:41:29.044Z,4.68
2023-05-13T13:43:56.543Z,6.78
2023-05-13T13:46:23.863Z,4.15
2023-05-13T13:48:51.434Z,5.55
2023-05-13T13:51:18.782Z,6.30
2023-05-13T13:53:46.350Z,6.85
2023-05-13T13:56:13.640Z,4.13
2023-05-13T13:58:41.117Z,3.45
2023-05-13T14:01:08.377Z,4.28
2023-05-13T14:03:36.131Z,4.93
2023-05-13T14:06:03.552Z,7.10
2023-05-13T14:08:31.053Z,4.35
2023-05-13T14:10:58.233Z,3.97
2023-05-13T14:13:25.702Z,3.47
2023-05-13T14:15:53.078Z,4.32
2023-05-13T14:18:20.627Z,3.97
2023-05-13T14:20:47.926Z,5.47
2023-05-13T14:23:15.551Z,5.57
2023-05-13T14:25:43.254Z,5.13
2023-05-13T14:28:10.774Z,7.45
2023-05-13T14:30:38.070Z,3.35
2023-05-13T14:33:05.616Z,2.30
2023-05-13T14:35:33.011Z,2.90
2023-05-13T14:38:00.447Z,2.42
2023-05-13T14:40:27.817Z,3.03
2023-05-13T14:42:55.259Z,8.38
2023-05-13T14:45:22.459Z,4.95
2023-05-13T14:47:49.944Z,3.95
2023-05-13T14:50:17.444Z,6.80
2023-05-13T14:52:44.886Z,4.20
2023-05-13T14:55:12.089Z,4.43
2023-05-13T14:57:39.625Z,2.33
2023-05-13T15:00:08.334Z,3.17
2023-05-13T15:02:35.890Z,4.35
2023-05-13T15:05:03.230Z,2.20
2023-05-13T15:07:30.746Z,3.92
2023-05-13T15:09:57.997Z,8.15
2023-05-13T15:12:25.797Z,4.13
2023-05-13T15:14:53.554Z,5.43
2023-05-13T15:17:21.654Z,8.95
2023-05-13T15:19:48.868Z,4.30
2023-05-13T15:22:16.445Z,8.70
2023-05-13T15:24:45.662Z,4.63
2023-05-13T15:27:13.104Z,5.10
2023-05-13T15:29:40.280Z,7.90
2023-05-13T15:32:07.800Z,2.85
2023-05-13T15:34:35.025Z,2.08
2023-05-13T15:37:02.531Z,2.65
2023-05-13T15:39:29.811Z,3.97
2023-05-13T15:41:57.358Z,4.00
2023-05-13T15:44:24.918Z,4.60
2023-05-13T15:46:52.758Z,2.95
2023-05-13T15:49:20.084Z,3.75
2023-05-13T15:51:47.691Z,4.05
2023-05-13T15:54:15.284Z,2.85
2023-05-13T15:56:42.880Z,3.35
2023-05-13T15:59:10.248Z,3.83
2023-05-13T16:01:37.857Z,3.50
2023-05-13T16:04:05.145Z,4.72
2023-05-13T16:06:32.634Z,3.78
2023-05-13T16:09:00.052Z,5.15
2023-05-13T16:11:27.742Z,4.43
2023-05-13T16:13:55.240Z,3.70
2023-05-13T16:16:22.825Z,5.78
2023-05-13T16:18:50.145Z,4.80
2023-05-13T16:21:17.762Z,3.45
2023-05-13T16:23:45.088Z,7.63
2023-05-13T16:26:12.615Z,5.60
2023-05-13T16:28:40.196Z,4.63
2023-05-13T16:31:07.757Z,6.25
2023-05-13T16:33:35.040Z,6.90
2023-05-13T16:36:02.600Z,6.72
2023-05-13T16:38:29.837Z,5.97
2023-05-13T16:40:57.309Z,2.40
2023-05-13T16:43:24.551Z,2.45
2023-05-13T16:45:52.313Z,6.72
2023-05-13T16:48:19.784Z,4.78
2023-05-13T16:50:49.555Z,3.15
2023-05-13T16:53:19.704Z,3.35
2023-05-13T16:55:47.234Z,4.35
2023-05-13T16:58:14.476Z,4.25
2023-05-13T17:00:41.952Z,4.03
2023-05-13T17:03:09.367Z,4.38
2023-05-13T17:05:37.350Z,7.95
2023-05-13T17:08:04.698Z,4.03
2023-05-13T17:10:33.404Z,3.50
2023-05-13T17:13:00.614Z,3.47
2023-05-13T17:15:28.209Z,6.22
2023-05-13T17:17:55.501Z,4.15
2023-05-13T17:20:23.322Z,5.60
2023-05-13T17:22:50.776Z,9.27
2023-05-13T17:25:18.313Z,10.18
2023-05-13T17:27:45.503Z,5.85
2023-05-13T17:30:13.306Z,4.85
2023-05-13T17:32:40.615Z,9.45
2023-05-13T17:35:08.368Z,6.57
2023-05-13T17:37:35.592Z,6.20
2023-05-13T17:40:03.281Z,9.95
2023-05-13T17:42:30.649Z,15.00
2023-05-13T17:44:58.193Z,11.10
2023-05-13T17:47:25.486Z,11.63
2023-05-13T17:49:53.492Z,9.63
2023-05-13T17:52:20.717Z,7.90
2023-05-13T17:54:48.246Z,12.07
2023-05-13T17:57:15.486Z,6.72
2023-05-13T17:59:43.335Z,7.18
2023-05-13T18:02:10.678Z,9.05
2023-05-13T18:04:38.475Z,6.60
2023-05-13T18:07:05.665Z,7.75
2023-05-13T18:09:33.158Z,9.18
2023-05-13T18:12:00.372Z,10.13
2023-05-13T18:14:27.957Z,11.38
2023-05-13T18:16:55.202Z,9.48
2023-05-13T18:19:23.308Z,8.85
2023-05-13T18:21:50.575Z,8.70
2023-05-13T18:24:18.362Z,12.43
2023-05-13T18:26:45.667Z,9.80
2023-05-13T18:29:13.413Z,11.07
2023-05-13T18:31:40.877Z,8.32
2023-05-13T18:34:08.772Z,9.20
2023-05-13T18:36:36.121Z,12.55
2023-05-13T18:39:03.830Z,14.77
2023-05-13T18:41:31.126Z,9.55
2023-05-13T18:43:58.707Z,12.10
2023-05-13T18:46:25.983Z,14.07
2023-05-13T18:48:53.497Z,13.00
2023-05-13T18:51:20.760Z,23.63
2023-05-13T18:53:48.358Z,11.68
2023-05-13T18:56:15.604Z,15.93
2023-05-13T18:58:43.196Z,16.05
2023-05-13T19:01:10.590Z,18.20
2023-05-13T19:03:38.685Z,11.35
2023-05-13T19:06:06.066Z,16.35
2023-05-13T19:08:33.736Z,11.27
2023-05-13T19:11:00.967Z,15.27
2023-05-13T19:13:39.439Z,10.48
2023-05-13T19:16:13.746Z,11.75
2023-05-13T19:18:41.339Z,15.73
2023-05-13T19:21:08.581Z,10.68
2023-05-13T19:23:37.358Z,12.80
2023-05-13T19:26:04.588Z,11.43
2023-05-13T19:28:34.034Z,7.22
2023-05-13T19:31:01.583Z,10.32
2023-05-13T19:33:29.075Z,6.38
2023-05-13T19:35:56.429Z,8.63
2023-05-13T19:38:23.946Z,11.38
2023-05-13T19:40:52.443Z,11.02
2023-05-13T19:43:19.985Z,11.20
2023-05-13T19:45:47.241Z,8.70
2023-05-13T19:48:14.889Z,9.60
2023-05-13T19:50:42.337Z,9.85
2023-05-13T19:53:10.021Z,10.80
2023-05-13T19:55:37.371Z,8.88
2023-05-13T19:58:04.887Z,10.50
2023-05-13T20:00:32.312Z,11.45
2023-05-13T20:02:59.979Z,8.50
2023-05-13T20:05:27.231Z,8.52
2023-05-13T20:07:54.845Z,7.85
2023-05-13T20:10:22.302Z,9.57
2023-05-13T20:12:49.933Z,11.50
2023-05-13T20:15:18.596Z,12.50
2023-05-13T20:17:46.433Z,10.07
2023-05-13T20:20:13.761Z,11.40
2023-05-13T20:22:41.241Z,8.48
2023-05-13T20:25:08.695Z,11.48
2023-05-13T20:27:36.209Z,8.52
2023-05-13T20:30:03.580Z,8.93
2023-05-13T20:32:31.092Z,8.80
2023-05-13T20:34:58.341Z,9.77
2023-05-13T20:37:28.939Z,10.27
2023-05-13T20:39:56.560Z,10.43
2023-05-13T20:42:24.179Z,9.80
2023-05-13T20:44:51.574Z,10.98
2023-05-13T20:47:22.031Z,13.82
2023-05-13T20:49:49.328Z,14.13
2023-05-13T20:52:16.947Z,13.98
2023-05-13T20:54:44.242Z,22.38
2023-05-13T20:57:11.723Z,16.77
2023-05-13T20:59:38.960Z,18.50
2023-05-13T21:02:06.932Z,16.42
2023-05-13T21:04:35.259Z,17.38
2023-05-13T21:10:16.632Z,17.05
2023-05-13T21:12:44.143Z,16.65
2023-05-13T21:15:13.061Z,14.32
2023-05-13T21:17:42.016Z,16.23
2023-05-13T21:20:10.474Z,20.27
2023-05-13T21:22:37.945Z,14.13
2023-05-13T21:25:05.546Z,15.85
2023-05-13T21:27:33.055Z,18.42
2023-05-13T21:30:00.319Z,15.15
2023-05-13T21:32:35.091Z,13.07
2023-05-13T21:35:02.320Z,12.15
2023-05-13T21:37:29.824Z,13.13
2023-05-13T21:39:57.093Z,12.57
2023-05-13T21:42:25.762Z,13.23
2023-05-13T21:44:53.339Z,14.68
2023-05-13T21:47:24.312Z,14.43
2023-05-13T21:49:51.623Z,11.90
2023-05-13T21:52:19.188Z,17.30
2023-05-13T21:54:46.463Z,15.38
2023-05-13T21:57:13.979Z,13.82
2023-05-13T21:59:41.177Z,14.50
2023-05-13T22:02:08.773Z,15.80
2023-05-13T22:04:36.051Z,12.52
2023-05-13T22:07:03.708Z,13.25
2023-05-13T22:09:31.353Z,11.68
2023-05-13T22:11:58.940Z,14.07
2023-05-13T22:14:26.235Z,11.32
2023-05-13T22:17:07.806Z,11.75
2023-05-13T22:19:37.030Z,14.95
2023-05-13T22:22:04.891Z,10.38
2023-05-13T22:24:32.153Z,13.82
2023-05-13T22:26:59.759Z,12.88
2023-05-13T22:29:27.121Z,9.20
2023-05-13T22:31:54.717Z,12.02
2023-05-13T22:34:21.975Z,10.90
2023-05-13T22:36:49.620Z,12.20
2023-05-13T22:39:16.867Z,10.70
2023-05-13T22:41:44.652Z,12.70
2023-05-13T22:44:12.197Z,10.07
2023-05-13T22:46:39.706Z,8.60
2023-05-13T22:49:06.986Z,9.18
2023-05-13T22:51:34.473Z,10.50
2023-05-13T22:54:04.072Z,9.90
2023-05-13T22:56:31.688Z,11.55
2023-05-13T22:59:07.925Z,10.98
2023-05-13T23:01:35.518Z,10.43
2023-05-13T23:04:03.135Z,12.85
2023-05-13T23:06:30.689Z,11.90
2023-05-13T23:08:58.203Z,11.63
2023-05-13T23:11:25.837Z,11.85
2023-05-13T23:13:53.058Z,10.15
2023-05-13T23:16:20.699Z,10.77
2023-05-13T23:18:48.063Z,13.35
2023-05-13T23:21:15.581Z,12.23
2023-05-13T23:23:42.808Z,15.13
2023-05-13T23:26:10.284Z,10.73
2023-05-13T23:28:37.509Z,14.30
2023-05-13T23:31:05.167Z,17.35
2023-05-13T23:33:32.376Z,12.70
2023-05-13T23:35:59.903Z,17.67
2023-05-13T23:38:27.153Z,13.75
2023-05-13T23:40:54.639Z,11.35
2023-05-13T23:43:21.835Z,13.20
2023-05-13T23:45:49.458Z,18.10
2023-05-13T23:48:16.787Z,13.93
2023-05-13T23:50:44.253Z,12.00
2023-05-13T23:53:11.447Z,12.95
2023-05-13T23:55:38.905Z,15.05
2023-05-13T23:58:06.137Z,15.68
